createdAt,value
2022-08-04T00:00:01.932Z,1000.61
2022-08-04T00:00:31.414Z,1000.61
2022-08-04T00:01:03.919Z,1000.61
2022-08-04T00:01:35.709Z,1000.54
2022-08-04T00:02:06.384Z,1000.54
2022-08-04T00:02:33.632Z,1000.61
2022-08-04T00:02:53.591Z,1000.61
2022-08-04T00:03:27.400Z,1000.61
2022-08-04T00:04:01.821Z,1000.54
2022-08-04T00:04:31.472Z,1000.54
2022-08-04T00:05:02.560Z,1000.61
2022-08-04T00:05:35.341Z,1000.54
2022-08-04T00:06:05.626Z,1000.54
2022-08-04T00:06:34.089Z,1000.54
2022-08-04T00:06:54.018Z,1000.54
2022-08-04T00:07:43.960Z,1000.54
2022-08-04T00:07:59.548Z,1000.54
2022-08-04T00:08:30.609Z,1000.54
2022-08-04T00:09:02.444Z,1000.44
2022-08-04T00:09:34.237Z,1000.61
2022-08-04T00:10:09.090Z,1000.61
2022-08-04T00:10:33.550Z,1000.61
2022-08-04T00:10:53.829Z,1000.61
2022-08-04T00:11:25.649Z,1000.61
2022-08-04T00:11:57.609Z,1000.34
2022-08-04T00:12:31.402Z,1000.34
2022-08-04T00:13:02.218Z,1000.44
2022-08-04T00:13:33.669Z,1000.44
2022-08-04T00:14:05.665Z,1000.44
2022-08-04T00:14:34.109Z,1000.54
2022-08-04T00:14:54.091Z,1000.54
2022-08-04T00:15:27.489Z,1000.54
2022-08-04T00:15:58.572Z,1000.44
2022-08-04T00:16:32.968Z,1000.44
2022-08-04T00:17:02.856Z,1000.54
2022-08-04T00:17:36.295Z,1000.54
2022-08-04T00:18:06.595Z,1000.54
2022-08-04T00:18:33.678Z,1000.44
2022-08-04T00:18:53.585Z,1000.44
2022-08-04T00:19:34.704Z,1000.34
2022-08-04T00:19:58.834Z,1000.34
2022-08-04T00:20:29.875Z,1000.34
2022-08-04T00:21:02.397Z,1000.44
2022-08-04T00:21:34.328Z,1000.54
2022-08-04T00:22:06.307Z,1000.54
2022-08-04T00:22:33.551Z,1000.44
2022-08-04T00:22:55.296Z,1000.44
2022-08-04T00:23:25.878Z,1000.44
2022-08-04T00:24:11.848Z,1000.44
2022-08-04T00:24:31.121Z,1000.44
2022-08-04T00:25:01.874Z,1000.54
2022-08-04T00:25:35.450Z,1000.44
2022-08-04T00:26:05.567Z,1000.44
2022-08-04T00:26:33.624Z,1000.44
2022-08-04T00:26:54.435Z,1000.44
2022-08-04T00:27:25.705Z,1000.44
2022-08-04T00:27:58.300Z,1000.34
2022-08-04T00:28:30.491Z,1000.34
2022-08-04T00:29:01.664Z,1000.34
2022-08-04T00:29:40.022Z,1000.24
2022-08-04T00:30:06.652Z,1000.24
2022-08-04T00:30:33.692Z,1000.24
2022-08-04T00:30:54.348Z,1000.24
2022-08-04T00:31:53.640Z,1000.24
2022-08-04T00:32:13.668Z,1000.24
2022-08-04T00:32:34.919Z,1000.24
2022-08-04T00:33:02.215Z,1000.24
2022-08-04T00:33:34.487Z,1000.44
2022-08-04T00:34:06.721Z,1000.44
2022-08-04T00:34:33.698Z,1000.34
2022-08-04T00:35:09.878Z,1000.34
2022-08-04T00:35:34.390Z,1000.34
2022-08-04T00:35:59.277Z,1000.34
2022-08-04T00:36:29.722Z,1000.34
2022-08-04T00:37:02.391Z,1000.13
2022-08-04T00:37:33.681Z,1000.24
2022-08-04T00:38:08.975Z,1000.24
2022-08-04T00:38:35.441Z,1000.34
2022-08-04T00:38:53.861Z,1000.34
2022-08-04T00:39:26.118Z,1000.34
2022-08-04T00:40:07.087Z,1000.34
2022-08-04T00:40:30.636Z,1000.34
2022-08-04T00:41:02.737Z,1000.24
2022-08-04T00:41:33.726Z,1000.44
2022-08-04T00:42:23.073Z,1000.44
2022-08-04T00:42:58.708Z,1000.44
2022-08-04T00:43:10.532Z,1000.44
2022-08-04T00:43:33.546Z,1000.34
2022-08-04T00:43:57.679Z,1000.34
2022-08-04T00:44:29.576Z,1000.34
2022-08-04T00:45:02.563Z,1000.44
2022-08-04T00:46:15.700Z,1000.24
2022-08-04T00:46:23.155Z,1000.24
2022-08-04T00:46:40.292Z,1000.24
2022-08-04T00:47:09.591Z,1000.24
2022-08-04T00:47:35.568Z,1000.24
2022-08-04T00:47:58.608Z,1000.24
2022-08-04T00:48:30.988Z,1000.24
2022-08-04T00:49:02.598Z,1000.44
2022-08-04T00:49:35.592Z,1000.44
2022-08-04T00:50:05.762Z,1000.44
2022-08-04T00:50:33.627Z,1000.34
2022-08-04T00:51:00.789Z,1000.34
2022-08-04T00:51:25.557Z,1000.34
2022-08-04T00:52:32.455Z,1000.24
2022-08-04T00:52:45.952Z,1000.03
2022-08-04T00:53:18.866Z,1000.03
2022-08-04T00:54:02.137Z,1000.34
2022-08-04T00:54:22.763Z,1000.34
2022-08-04T00:54:39.948Z,1000.24
2022-08-04T00:55:09.854Z,1000.24
2022-08-04T00:55:34.405Z,1000.34
2022-08-04T00:55:58.979Z,1000.34
2022-08-04T00:56:30.359Z,1000.34
2022-08-04T00:57:02.578Z,1000.44
2022-08-04T00:57:35.605Z,1000.24
2022-08-04T00:58:05.697Z,1000.24
2022-08-04T00:58:33.640Z,1000.24
2022-08-04T00:58:53.543Z,1000.24
2022-08-04T00:59:25.619Z,1000.24
2022-08-04T00:59:58.189Z,1000.03
2022-08-04T01:00:32.468Z,1000.03
2022-08-04T01:01:02.474Z,1000.34
2022-08-04T01:01:35.210Z,1000.44
2022-08-04T01:02:07.064Z,1000.44
2022-08-04T01:02:39.302Z,1000.24
2022-08-04T01:03:12.495Z,1000.24
2022-08-04T01:03:37.835Z,1000.24
2022-08-04T01:04:00.662Z,1000.24
2022-08-04T01:04:32.974Z,1000.24
2022-08-04T01:05:02.500Z,1000.34
2022-08-04T01:05:36.750Z,1000.24
2022-08-04T01:06:06.587Z,1000.24
2022-08-04T01:06:34.591Z,1000.34
2022-08-04T01:07:01.449Z,1000.34
2022-08-04T01:07:26.344Z,1000.34
2022-08-04T01:07:58.361Z,1000.03
2022-08-04T01:08:30.587Z,1000.03
2022-08-04T01:09:21.714Z,1000.44
2022-08-04T01:09:50.133Z,1000.34
2022-08-04T01:10:23.146Z,1000.34
2022-08-04T01:10:40.998Z,1000.34
2022-08-04T01:11:10.846Z,1000.34
2022-08-04T01:11:33.571Z,1000.24
2022-08-04T01:12:13.617Z,1000.24
2022-08-04T01:12:34.319Z,1000.34
2022-08-04T01:13:02.478Z,1000.34
2022-08-04T01:13:36.374Z,1000.24
2022-08-04T01:14:07.253Z,1000.24
2022-08-04T01:14:33.616Z,1000.24
2022-08-04T01:14:54.675Z,1000.24
2022-08-04T01:15:26.581Z,1000.24
2022-08-04T01:16:00.629Z,1000.13
2022-08-04T01:16:30.266Z,1000.13
2022-08-04T01:17:01.555Z,1000.34
2022-08-04T01:17:34.665Z,1000.44
2022-08-04T01:18:06.689Z,1000.44
2022-08-04T01:18:34.518Z,1000.13
2022-08-04T01:18:55.047Z,1000.13
2022-08-04T01:19:27.642Z,1000.13
2022-08-04T01:19:58.359Z,1000.34
2022-08-04T01:20:30.920Z,1000.34
2022-08-04T01:21:02.330Z,1000.03
2022-08-04T01:21:35.059Z,1000.03
2022-08-04T01:22:06.552Z,1000.03
2022-08-04T01:22:33.566Z,999.93
2022-08-04T01:22:53.670Z,999.93
2022-08-04T01:23:28.055Z,999.93
2022-08-04T01:23:57.548Z,1000.03
2022-08-04T01:24:33.042Z,1000.03
2022-08-04T01:25:04.642Z,1000.03
2022-08-04T01:25:36.913Z,1000.13
2022-08-04T01:26:42.584Z,1000.13
2022-08-04T01:26:57.637Z,999.93
2022-08-04T01:27:25.682Z,999.93
2022-08-04T01:27:58.465Z,1000.13
2022-08-04T01:28:30.563Z,1000.13
2022-08-04T01:29:02.925Z,999.93
2022-08-04T01:29:47.012Z,1000.13
2022-08-04T01:30:07.604Z,1000.13
2022-08-04T01:30:35.364Z,1000.24
2022-08-04T01:30:53.690Z,1000.24
2022-08-04T01:31:25.643Z,1000.24
2022-08-04T01:31:57.643Z,1000.03
2022-08-04T01:32:29.676Z,1000.03
2022-08-04T01:33:01.716Z,1000.03
2022-08-04T01:34:03.023Z,999.93
2022-08-04T01:34:23.161Z,999.93
2022-08-04T01:34:42.433Z,1000.13
2022-08-04T01:35:09.987Z,1000.13
2022-08-04T01:35:47.321Z,1000.03
2022-08-04T01:35:57.807Z,1000.03
2022-08-04T01:36:29.757Z,1000.03
2022-08-04T01:37:19.095Z,1000.03
2022-08-04T01:37:49.637Z,1000.03
2022-08-04T01:38:23.244Z,1000.03
2022-08-04T01:38:43.426Z,1000.13
2022-08-04T01:39:09.612Z,1000.13
2022-08-04T01:39:33.830Z,999.93
2022-08-04T01:39:57.522Z,999.93
2022-08-04T01:40:31.276Z,999.93
2022-08-04T01:41:01.776Z,999.93
2022-08-04T01:41:34.343Z,999.93
2022-08-04T01:42:05.672Z,999.93
2022-08-04T01:42:34.915Z,999.93
2022-08-04T01:42:55.715Z,999.93
2022-08-04T01:43:25.613Z,999.93
2022-08-04T01:43:58.245Z,999.93
2022-08-04T01:44:29.587Z,999.93
2022-08-04T01:45:05.483Z,999.93
2022-08-04T01:45:34.480Z,1000.03
2022-08-04T01:46:06.254Z,1000.03
2022-08-04T01:46:34.363Z,1000.03
2022-08-04T01:46:53.550Z,1000.03
2022-08-04T01:47:26.418Z,1000.03
2022-08-04T01:47:58.922Z,999.83
2022-08-04T01:48:30.589Z,999.83
2022-08-04T01:49:05.920Z,999.93
2022-08-04T01:49:40.479Z,999.93
2022-08-04T01:50:05.752Z,999.93
2022-08-04T01:50:41.602Z,1000.03
2022-08-04T01:51:09.571Z,1000.03
2022-08-04T01:51:33.589Z,999.93
2022-08-04T01:51:57.646Z,999.93
2022-08-04T01:52:29.521Z,999.93
2022-08-04T01:53:02.329Z,999.93
2022-08-04T01:53:35.489Z,999.93
2022-08-04T01:54:06.247Z,999.93
2022-08-04T01:54:37.763Z,999.83
2022-08-04T01:55:09.695Z,999.83
2022-08-04T01:55:54.845Z,999.93
2022-08-04T01:55:58.543Z,999.93
2022-08-04T01:56:34.304Z,999.93
2022-08-04T01:57:01.519Z,1000.03
2022-08-04T01:57:50.898Z,999.83
2022-08-04T01:58:21.585Z,999.83
2022-08-04T01:58:38.781Z,999.93
2022-08-04T01:59:09.751Z,999.93
2022-08-04T01:59:34.435Z,999.83
2022-08-04T02:00:00.003Z,999.83
2022-08-04T02:00:30.168Z,999.83
2022-08-04T02:01:07.989Z,999.83
2022-08-04T02:01:34.289Z,999.93
2022-08-04T02:02:06.362Z,999.93
2022-08-04T02:02:36.002Z,999.83
2022-08-04T02:02:55.012Z,999.83
2022-08-04T02:04:21.602Z,999.83
2022-08-04T02:04:30.343Z,999.93
2022-08-04T02:05:01.659Z,999.93
2022-08-04T02:06:03.250Z,999.73
2022-08-04T02:06:12.754Z,999.73
2022-08-04T02:06:36.187Z,999.73
2022-08-04T02:06:58.223Z,999.73
2022-08-04T02:07:25.517Z,999.73
2022-08-04T02:07:57.573Z,999.63
2022-08-04T02:08:30.737Z,999.63
2022-08-04T02:09:02.010Z,999.83
2022-08-04T02:09:34.514Z,999.83
2022-08-04T02:10:06.669Z,999.83
2022-08-04T02:10:33.571Z,999.73
2022-08-04T02:10:54.864Z,999.73
2022-08-04T02:11:26.218Z,999.73
2022-08-04T02:11:57.527Z,999.83
2022-08-04T02:12:29.558Z,999.83
2022-08-04T02:13:01.674Z,999.83
2022-08-04T02:13:33.637Z,999.63
2022-08-04T02:14:05.515Z,999.63
2022-08-04T02:14:35.412Z,999.63
2022-08-04T02:14:54.349Z,999.63
2022-08-04T02:15:25.849Z,999.63
2022-08-04T02:15:58.309Z,999.63
2022-08-04T02:16:32.584Z,999.63
2022-08-04T02:17:07.388Z,999.52
2022-08-04T02:17:33.710Z,999.73
2022-08-04T02:18:07.142Z,999.73
2022-08-04T02:18:33.644Z,999.73
2022-08-04T02:18:53.556Z,999.73
2022-08-04T02:19:25.611Z,999.73
2022-08-04T02:19:57.592Z,999.73
2022-08-04T02:20:31.659Z,999.73
2022-08-04T02:21:02.507Z,999.73
2022-08-04T02:21:41.935Z,999.83
2022-08-04T02:22:06.200Z,999.83
2022-08-04T02:22:34.440Z,999.73
2022-08-04T02:23:11.033Z,999.73
2022-08-04T02:23:36.046Z,999.63
2022-08-04T02:24:13.646Z,999.63
2022-08-04T02:24:34.362Z,999.73
2022-08-04T02:25:03.404Z,999.73
2022-08-04T02:25:34.304Z,999.73
2022-08-04T02:26:08.449Z,999.73
2022-08-04T02:26:33.574Z,999.52
2022-08-04T02:26:53.619Z,999.52
2022-08-04T02:27:25.637Z,999.52
2022-08-04T02:27:59.215Z,999.73
2022-08-04T02:28:41.446Z,999.63
2022-08-04T02:29:01.687Z,999.63
2022-08-04T02:29:34.644Z,999.52
2022-08-04T02:30:06.155Z,999.52
2022-08-04T02:30:33.809Z,999.42
2022-08-04T02:30:55.642Z,999.42
2022-08-04T02:31:28.978Z,999.42
2022-08-04T02:31:58.397Z,999.52
2022-08-04T02:32:30.396Z,999.52
2022-08-04T02:33:01.760Z,999.83
2022-08-04T02:33:35.354Z,999.52
2022-08-04T02:34:05.649Z,999.52
2022-08-04T02:34:34.007Z,999.52
2022-08-04T02:34:54.091Z,999.52
2022-08-04T02:35:26.626Z,999.52
2022-08-04T02:35:58.442Z,999.52
2022-08-04T02:36:35.212Z,999.52
2022-08-04T02:37:02.292Z,999.52
2022-08-04T02:37:33.536Z,999.73
2022-08-04T02:38:10.452Z,999.73
2022-08-04T02:38:37.965Z,999.63
2022-08-04T02:39:09.635Z,999.63
2022-08-04T02:39:47.949Z,999.32
2022-08-04T02:40:00.547Z,999.32
2022-08-04T02:40:32.381Z,999.32
2022-08-04T02:41:03.439Z,999.42
2022-08-04T02:41:35.198Z,999.42
2022-08-04T02:42:05.576Z,999.42
2022-08-04T02:42:33.656Z,999.42
2022-08-04T02:42:53.505Z,999.42
2022-08-04T02:43:50.932Z,999.42
2022-08-04T02:44:01.522Z,999.63
2022-08-04T02:44:30.139Z,999.63
2022-08-04T02:45:05.819Z,999.52
2022-08-04T02:45:33.520Z,999.32
2022-08-04T02:46:17.847Z,999.32
2022-08-04T02:46:34.903Z,999.52
2022-08-04T02:46:54.207Z,999.52
2022-08-04T02:48:29.184Z,999.52
2022-08-04T02:48:33.558Z,999.22
2022-08-04T02:49:02.259Z,999.22
2022-08-04T02:49:33.761Z,999.42
2022-08-04T02:50:13.303Z,999.42
2022-08-04T02:50:33.608Z,999.42
2022-08-04T02:50:53.602Z,999.42
2022-08-04T02:51:25.546Z,999.42
2022-08-04T02:51:58.425Z,999.32
2022-08-04T02:52:29.635Z,999.32
2022-08-04T02:53:02.580Z,999.52
2022-08-04T02:53:34.282Z,999.52
2022-08-04T02:54:05.501Z,999.52
2022-08-04T02:54:34.475Z,999.32
2022-08-04T02:54:55.013Z,999.32
2022-08-04T02:55:25.722Z,999.32
2022-08-04T02:56:01.500Z,999.42
2022-08-04T02:56:29.526Z,999.42
2022-08-04T02:57:02.264Z,999.32
2022-08-04T02:57:33.607Z,999.52
2022-08-04T02:58:06.198Z,999.52
2022-08-04T02:58:33.595Z,999.32
2022-08-04T02:58:53.508Z,999.32
2022-08-04T02:59:26.629Z,999.32
2022-08-04T02:59:58.180Z,999.32
2022-08-04T03:00:29.661Z,999.32
2022-08-04T03:01:01.517Z,999.42
2022-08-04T03:01:36.888Z,999.22
2022-08-04T03:02:06.442Z,999.22
2022-08-04T03:02:35.548Z,999.32
2022-08-04T03:02:53.508Z,999.32
2022-08-04T03:03:26.310Z,999.32
2022-08-04T03:03:57.572Z,999.32
2022-08-04T03:04:32.147Z,999.32
2022-08-04T03:05:03.376Z,999.22
2022-08-04T03:05:50.033Z,999.32
2022-08-04T03:06:10.350Z,999.32
2022-08-04T03:06:33.608Z,999.32
2022-08-04T03:06:56.282Z,999.32
2022-08-04T03:07:25.512Z,999.32
2022-08-04T03:07:59.250Z,999.22
2022-08-04T03:08:33.096Z,999.22
2022-08-04T03:09:02.128Z,999.42
2022-08-04T03:09:35.238Z,999.32
2022-08-04T03:10:10.624Z,999.32
2022-08-04T03:10:33.598Z,999.32
2022-08-04T03:10:54.467Z,999.32
2022-08-04T03:11:26.381Z,999.32
2022-08-04T03:11:58.520Z,999.22
2022-08-04T03:12:29.517Z,999.22
2022-08-04T03:13:01.823Z,999.22
2022-08-04T03:13:33.581Z,999.52
2022-08-04T03:14:09.561Z,999.52
2022-08-04T03:14:36.809Z,999.42
2022-08-04T03:14:53.397Z,999.42
2022-08-04T03:15:43.125Z,999.42
2022-08-04T03:16:13.503Z,999.42
2022-08-04T03:16:38.142Z,999.22
2022-08-04T03:17:02.273Z,999.22
2022-08-04T03:17:37.066Z,999.42
2022-08-04T03:18:06.085Z,999.42
2022-08-04T03:18:36.108Z,999.32
2022-08-04T03:18:54.921Z,999.32
2022-08-04T03:19:28.981Z,999.32
2022-08-04T03:19:58.423Z,999.32
2022-08-04T03:20:29.636Z,999.32
2022-08-04T03:21:04.764Z,999.32
2022-08-04T03:21:36.718Z,999.22
2022-08-04T03:22:06.419Z,999.22
2022-08-04T03:22:41.922Z,999.22
2022-08-04T03:23:13.814Z,999.22
2022-08-04T03:23:33.666Z,999.22
2022-08-04T03:23:57.597Z,999.22
2022-08-04T03:24:29.622Z,999.22
2022-08-04T03:25:06.676Z,999.22
2022-08-04T03:25:35.448Z,999.22
2022-08-04T03:26:07.559Z,999.22
2022-08-04T03:26:34.761Z,999.22
2022-08-04T03:26:53.610Z,999.22
2022-08-04T03:27:26.199Z,999.22
2022-08-04T03:27:57.472Z,999.32
2022-08-04T03:28:30.788Z,999.32
2022-08-04T03:29:03.002Z,999.32
2022-08-04T03:29:36.478Z,999.02
2022-08-04T03:30:06.665Z,999.02
2022-08-04T03:30:36.210Z,999.32
2022-08-04T03:30:55.092Z,999.32
2022-08-04T03:31:26.254Z,999.32
2022-08-04T03:32:00.357Z,999.22
2022-08-04T03:32:30.310Z,999.22
2022-08-04T03:33:02.198Z,999.22
2022-08-04T03:33:34.074Z,999.12
2022-08-04T03:34:07.144Z,999.12
2022-08-04T03:34:33.681Z,999.02
2022-08-04T03:34:53.490Z,999.02
2022-08-04T03:35:25.609Z,999.02
2022-08-04T03:35:57.557Z,999.22
2022-08-04T03:36:31.689Z,999.22
2022-08-04T03:37:02.382Z,999.22
2022-08-04T03:37:33.521Z,999.22
2022-08-04T03:38:05.553Z,999.22
2022-08-04T03:38:33.688Z,999.12
2022-08-04T03:38:56.871Z,999.12
2022-08-04T03:39:27.839Z,999.12
2022-08-04T03:39:57.528Z,999.12
2022-08-04T03:40:31.258Z,999.12
2022-08-04T03:41:01.480Z,999.12
2022-08-04T03:41:57.337Z,999.22
2022-08-04T03:42:08.377Z,999.22
2022-08-04T03:42:33.568Z,999.22
2022-08-04T03:42:54.269Z,999.22
2022-08-04T03:43:58.241Z,999.22
2022-08-04T03:44:01.809Z,999.12
2022-08-04T03:44:29.576Z,999.12
2022-08-04T03:45:23.184Z,999.22
2022-08-04T03:45:34.509Z,999.12
2022-08-04T03:46:07.497Z,999.12
2022-08-04T03:46:34.558Z,999.32
2022-08-04T03:46:53.536Z,999.32
2022-08-04T03:47:26.172Z,999.32
2022-08-04T03:47:58.310Z,999.22
2022-08-04T03:48:30.327Z,999.22
2022-08-04T03:49:02.614Z,999.32
2022-08-04T03:49:35.149Z,999.22
2022-08-04T03:50:05.619Z,999.22
2022-08-04T03:50:38.335Z,999.32
2022-08-04T03:50:53.687Z,999.32
2022-08-04T03:51:35.475Z,999.32
2022-08-04T03:51:58.143Z,999.22
2022-08-04T03:52:29.529Z,999.22
2022-08-04T03:53:02.317Z,999.32
2022-08-04T03:53:33.610Z,999.22
2022-08-04T03:54:07.135Z,999.22
2022-08-04T03:54:33.662Z,999.22
2022-08-04T03:54:55.015Z,999.22
2022-08-04T03:55:27.345Z,999.22
2022-08-04T03:55:58.713Z,999.22
2022-08-04T03:56:47.134Z,999.12
2022-08-04T03:57:17.453Z,999.12
2022-08-04T03:57:51.300Z,999.32
2022-08-04T03:58:21.508Z,999.32
2022-08-04T03:58:39.293Z,999.22
2022-08-04T03:59:09.471Z,999.22
2022-08-04T03:59:34.230Z,999.12
2022-08-04T03:59:57.578Z,999.12
2022-08-04T04:00:29.756Z,999.12
2022-08-04T04:01:02.270Z,999.22
2022-08-04T04:02:01.085Z,999.32
2022-08-04T04:02:07.164Z,999.32
2022-08-04T04:02:35.287Z,999.32
2022-08-04T04:02:54.029Z,999.32
2022-08-04T04:03:33.760Z,999.32
2022-08-04T04:03:57.647Z,999.32
2022-08-04T04:04:30.664Z,999.32
2022-08-04T04:05:01.747Z,999.32
2022-08-04T04:05:37.361Z,999.32
2022-08-04T04:06:06.528Z,999.32
2022-08-04T04:06:34.037Z,999.22
2022-08-04T04:06:54.177Z,999.22
2022-08-04T04:07:35.925Z,999.22
2022-08-04T04:08:01.384Z,999.22
2022-08-04T04:08:29.678Z,999.22
2022-08-04T04:09:01.630Z,999.12
2022-08-04T04:09:49.697Z,999.22
2022-08-04T04:10:06.995Z,999.22
2022-08-04T04:10:34.673Z,999.42
2022-08-04T04:10:56.040Z,999.42
2022-08-04T04:11:25.607Z,999.42
2022-08-04T04:11:59.294Z,999.22
2022-08-04T04:12:29.536Z,999.22
2022-08-04T04:13:04.160Z,999.32
2022-08-04T04:13:34.787Z,999.02
2022-08-04T04:14:08.001Z,999.02
2022-08-04T04:14:33.679Z,999.32
2022-08-04T04:14:53.593Z,999.32
2022-08-04T04:15:25.710Z,999.32
2022-08-04T04:15:58.588Z,999.12
2022-08-04T04:16:30.517Z,999.12
2022-08-04T04:17:01.587Z,999.32
2022-08-04T04:17:33.607Z,999.12
2022-08-04T04:18:05.670Z,999.12
2022-08-04T04:18:35.966Z,999.32
2022-08-04T04:18:54.964Z,999.32
2022-08-04T04:19:27.341Z,999.32
2022-08-04T04:19:58.215Z,999.12
2022-08-04T04:20:30.359Z,999.12
2022-08-04T04:21:04.525Z,999.22
2022-08-04T04:21:34.687Z,999.42
2022-08-04T04:22:05.652Z,999.42
2022-08-04T04:22:38.218Z,999.42
2022-08-04T04:22:53.511Z,999.42
2022-08-04T04:23:25.588Z,999.42
2022-08-04T04:23:58.158Z,999.42
2022-08-04T04:24:33.852Z,999.42
2022-08-04T04:25:02.395Z,999.52
2022-08-04T04:25:34.828Z,999.32
2022-08-04T04:26:14.356Z,999.32
2022-08-04T04:26:33.778Z,999.22
2022-08-04T04:26:53.500Z,999.22
2022-08-04T04:27:26.148Z,999.22
2022-08-04T04:27:57.587Z,999.52
2022-08-04T04:29:03.365Z,999.22
2022-08-04T04:29:34.330Z,999.22
2022-08-04T04:30:05.769Z,999.22
2022-08-04T04:30:33.732Z,999.32
2022-08-04T04:30:53.713Z,999.32
2022-08-04T04:31:25.531Z,999.32
2022-08-04T04:31:58.285Z,999.52
2022-08-04T04:32:29.647Z,999.52
2022-08-04T04:33:02.234Z,999.32
2022-08-04T04:33:34.015Z,999.52
2022-08-04T04:34:06.254Z,999.52
2022-08-04T04:34:35.060Z,999.32
2022-08-04T04:34:53.607Z,999.32
2022-08-04T04:35:25.639Z,999.32
2022-08-04T04:35:58.530Z,999.22
2022-08-04T04:36:29.567Z,999.22
2022-08-04T04:37:02.391Z,999.32
2022-08-04T04:37:34.869Z,999.22
2022-08-04T04:38:05.550Z,999.22
2022-08-04T04:38:33.674Z,999.32
2022-08-04T04:38:53.618Z,999.32
2022-08-04T04:39:26.377Z,999.32
2022-08-04T04:39:57.498Z,999.42
2022-08-04T04:40:32.646Z,999.42
2022-08-04T04:41:01.616Z,999.42
2022-08-04T04:41:34.238Z,999.32
2022-08-04T04:42:05.496Z,999.32
2022-08-04T04:42:33.666Z,999.52
2022-08-04T04:42:53.558Z,999.52
2022-08-04T04:43:51.461Z,999.52
2022-08-04T04:43:58.316Z,999.42
2022-08-04T04:44:30.891Z,999.42
2022-08-04T04:45:03.930Z,999.42
2022-08-04T04:45:33.606Z,999.32
2022-08-04T04:46:06.193Z,999.32
2022-08-04T04:46:33.698Z,999.12
2022-08-04T04:46:54.386Z,999.12
2022-08-04T04:47:43.113Z,999.12
2022-08-04T04:48:14.356Z,999.22
2022-08-04T04:48:45.501Z,999.22
2022-08-04T04:49:34.225Z,999.32
2022-08-04T04:50:05.626Z,999.32
2022-08-04T04:50:38.657Z,999.22
2022-08-04T04:51:11.623Z,999.22
2022-08-04T04:51:34.553Z,999.22
2022-08-04T04:51:58.418Z,999.22
2022-08-04T04:52:29.481Z,999.22
2022-08-04T04:53:02.295Z,999.52
2022-08-04T04:53:34.986Z,999.22
2022-08-04T04:54:05.978Z,999.22
2022-08-04T04:54:33.750Z,999.12
2022-08-04T04:54:53.491Z,999.12
2022-08-04T04:55:25.664Z,999.12
2022-08-04T04:55:57.589Z,999.32
2022-08-04T04:56:29.635Z,999.32
2022-08-04T04:57:01.493Z,999.42
2022-08-04T04:57:54.017Z,999.22
2022-08-04T04:58:23.887Z,999.22
2022-08-04T04:58:40.145Z,999.32
2022-08-04T04:59:10.138Z,999.32
2022-08-04T04:59:33.793Z,999.42
2022-08-04T04:59:57.571Z,999.42
2022-08-04T05:00:30.674Z,999.42
2022-08-04T05:01:05.164Z,999.32
2022-08-04T05:01:36.667Z,999.32
2022-08-04T05:02:05.571Z,999.32
2022-08-04T05:02:33.667Z,999.32
2022-08-04T05:03:00.408Z,999.32
2022-08-04T05:03:28.429Z,999.32
2022-08-04T05:04:05.214Z,999.22
2022-08-04T05:04:38.633Z,999.12
2022-08-04T05:05:01.680Z,999.12
2022-08-04T05:05:34.420Z,999.42
2022-08-04T05:06:05.506Z,999.42
2022-08-04T05:06:39.553Z,999.22
2022-08-04T05:07:09.597Z,999.22
2022-08-04T05:07:49.333Z,999.32
2022-08-04T05:08:43.239Z,999.32
2022-08-04T05:09:01.621Z,999.32
2022-08-04T05:09:38.185Z,999.22
2022-08-04T05:10:12.016Z,999.22
2022-08-04T05:10:33.683Z,999.12
2022-08-04T05:10:53.706Z,999.12
2022-08-04T05:11:25.581Z,999.12
2022-08-04T05:14:26.378Z,999.22
2022-08-04T05:15:40.521Z,999.22
2022-08-04T05:15:51.167Z,999.32
2022-08-04T05:16:13.460Z,999.32
2022-08-04T05:16:49.521Z,999.52
2022-08-04T05:17:18.007Z,999.52
2022-08-04T05:17:53.112Z,999.02
2022-08-04T05:18:25.554Z,999.02
2022-08-04T05:18:59.130Z,999.32
2022-08-04T05:19:26.462Z,999.32
2022-08-04T05:19:57.661Z,999.22
2022-08-04T05:20:29.601Z,999.22
2022-08-04T05:21:05.281Z,999.22
2022-08-04T05:21:34.465Z,999.22
2022-08-04T05:22:05.652Z,999.22
2022-08-04T05:22:35.752Z,999.22
2022-08-04T05:23:02.197Z,999.22
2022-08-04T05:23:25.549Z,999.22
2022-08-04T05:23:57.550Z,999.22
2022-08-04T05:24:35.095Z,999.22
2022-08-04T05:25:01.583Z,999.32
2022-08-04T05:25:33.505Z,999.42
2022-08-04T05:26:06.178Z,999.42
2022-08-04T05:26:33.749Z,999.52
2022-08-04T05:26:59.181Z,999.52
2022-08-04T05:27:39.444Z,999.42
2022-08-04T05:28:06.908Z,999.42
2022-08-04T05:28:30.744Z,999.42
2022-08-04T05:29:02.264Z,999.42
2022-08-04T05:29:34.203Z,999.42
2022-08-04T05:30:06.530Z,999.42
2022-08-04T05:30:34.615Z,999.02
2022-08-04T05:30:55.893Z,999.02
2022-08-04T05:31:26.392Z,999.02
2022-08-04T05:31:57.575Z,999.12
2022-08-04T05:32:29.606Z,999.12
2022-08-04T05:33:02.459Z,999.22
2022-08-04T05:33:33.487Z,999.12
2022-08-04T05:34:05.527Z,999.12
2022-08-04T05:34:34.372Z,999.32
2022-08-04T05:34:54.773Z,999.32
2022-08-04T05:35:53.012Z,999.32
2022-08-04T05:36:40.564Z,999.32
2022-08-04T05:37:02.195Z,999.22
2022-08-04T05:37:33.607Z,999.32
2022-08-04T05:38:06.337Z,999.32
2022-08-04T05:38:33.660Z,999.12
2022-08-04T05:38:53.712Z,999.12
2022-08-04T05:39:28.073Z,999.12
2022-08-04T05:39:57.480Z,999.32
2022-08-04T05:40:30.883Z,999.32
2022-08-04T05:41:02.308Z,999.32
2022-08-04T05:41:45.819Z,999.32
2022-08-04T05:42:07.402Z,999.32
2022-08-04T05:42:36.667Z,999.02
2022-08-04T05:43:08.859Z,999.02
2022-08-04T05:43:25.426Z,999.02
2022-08-04T05:43:57.534Z,999.02
2022-08-04T05:44:29.491Z,999.02
2022-08-04T05:45:01.593Z,999.22
2022-08-04T05:45:39.360Z,999.22
2022-08-04T05:46:05.583Z,999.22
2022-08-04T05:46:35.522Z,999.42
2022-08-04T05:46:54.702Z,999.42
2022-08-04T05:47:25.519Z,999.42
2022-08-04T05:47:58.101Z,999.12
2022-08-04T05:48:29.480Z,999.12
2022-08-04T05:49:02.207Z,999.12
2022-08-04T05:49:33.531Z,999.02
2022-08-04T05:50:06.355Z,999.02
2022-08-04T05:50:33.774Z,999.32
2022-08-04T05:50:58.874Z,999.32
2022-08-04T05:51:25.491Z,999.32
2022-08-04T05:51:57.786Z,999.02
2022-08-04T05:52:29.447Z,999.02
2022-08-04T05:53:01.539Z,999.02
2022-08-04T05:53:35.952Z,999.22
2022-08-04T05:54:05.620Z,999.22
2022-08-04T05:54:35.778Z,999.22
2022-08-04T05:54:53.460Z,999.22
2022-08-04T05:55:49.032Z,999.22
2022-08-04T05:56:13.587Z,999.32
2022-08-04T05:56:33.758Z,999.02
2022-08-04T05:57:01.539Z,999.02
2022-08-04T05:57:36.860Z,999.22
2022-08-04T05:58:05.516Z,999.22
2022-08-04T05:58:33.773Z,999.12
2022-08-04T05:58:54.456Z,999.12
2022-08-04T05:59:25.531Z,999.12
2022-08-04T05:59:58.331Z,999.12
2022-08-04T06:00:40.876Z,999.12
2022-08-04T06:01:02.384Z,999.32
2022-08-04T06:01:56.463Z,999.12
2022-08-04T06:02:06.240Z,999.12
2022-08-04T06:02:34.868Z,999.32
2022-08-04T06:02:53.552Z,999.32
2022-08-04T06:03:25.425Z,999.32
2022-08-04T06:03:57.451Z,999.12
2022-08-04T06:04:29.543Z,999.12
2022-08-04T06:05:01.699Z,999.02
2022-08-04T06:05:33.430Z,999.12
2022-08-04T06:06:05.442Z,999.12
2022-08-04T06:06:34.447Z,999.02
2022-08-04T06:06:53.601Z,999.02
2022-08-04T06:07:27.114Z,999.02
2022-08-04T06:08:07.765Z,999.02
2022-08-04T06:08:30.148Z,999.02
2022-08-04T06:09:01.689Z,999.02
2022-08-04T06:09:37.414Z,998.92
2022-08-04T06:10:05.637Z,998.92
2022-08-04T06:10:33.836Z,999.22
2022-08-04T06:10:53.700Z,999.22
2022-08-04T06:11:26.373Z,999.22
2022-08-04T06:12:03.713Z,999.22
2022-08-04T06:12:29.541Z,999.22
2022-08-04T06:13:02.091Z,999.02
2022-08-04T06:13:48.217Z,999.02
2022-08-04T06:14:06.128Z,999.02
2022-08-04T06:14:33.846Z,998.92
2022-08-04T06:14:53.594Z,998.92
2022-08-04T06:15:25.785Z,998.92
2022-08-04T06:15:57.508Z,999.12
2022-08-04T06:16:30.724Z,999.12
2022-08-04T06:17:01.563Z,999.22
2022-08-04T06:19:56.249Z,998.92